sensor_id;sensor_type;location;lat;lon;timestamp;pressure;altitude;pressure_sealevel;temperature;humidity
18858;BME280;9558;50.178;8.370;2024-02-16T00:00:21;98005.41;;;9.49;100.00
18858;BME280;9558;50.178;8.370;2024-02-16T00:03:08;98002.81;;;9.49;100.00
18858;BME280;9558;50.178;8.370;2024-02-16T00:05:55;98001.50;;;9.54;100.00
18858;BME280;9558;50.178;8.370;2024-02-16T00:08:41;98002.47;;;9.52;100.00
18858;BME280;9558;50.178;8.370;2024-02-16T00:11:28;97998.63;;;9.48;100.00
18858;BME280;9558;50.178;8.370;2024-02-16T00:14:15;97996.84;;;9.49;100.00
18858;BME280;9558;50.178;8.370;2024-02-16T00:17:04;98003.78;;;9.48;100.00
18858;BME280;9558;50.178;8.370;2024-02-16T00:19:52;98000.22;;;9.49;100.00
18858;BME280;9558;50.178;8.370;2024-02-16T00:22:39;97994.44;;;9.47;100.00
18858;BME280;9558;50.178;8.370;2024-02-16T00:25:26;97985.06;;;9.46;100.00
18858;BME280;9558;50.178;8.370;2024-02-16T00:28:12;97985.06;;;9.46;100.00
18858;BME280;9558;50.178;8.370;2024-02-16T00:30:59;97987.66;;;9.46;100.00
18858;BME280;9558;50.178;8.370;2024-02-16T00:33:47;97987.94;;;9.51;100.00
18858;BME280;9558;50.178;8.370;2024-02-16T00:36:34;97982.44;;;9.55;100.00
18858;BME280;9558;50.178;8.370;2024-02-16T00:39:21;97987.25;;;9.58;100.00
18858;BME280;9558;50.178;8.370;2024-02-16T00:42:08;97983.34;;;9.62;100.00
18858;BME280;9558;50.178;8.370;2024-02-16T00:44:56;97994.97;;;9.66;100.00
18858;BME280;9558;50.178;8.370;2024-02-16T00:47:45;97984.09;;;9.71;100.00
18858;BME280;9558;50.178;8.370;2024-02-16T00:50:35;97982.59;;;9.76;100.00
18858;BME280;9558;50.178;8.370;2024-02-16T00:53:22;97993.31;;;9.88;100.00
18858;BME280;9558;50.178;8.370;2024-02-16T00:56:10;97985.94;;;10.00;100.00
18858;BME280;9558;50.178;8.370;2024-02-16T00:58:57;97981.16;;;10.12;100.00
18858;BME280;9558;50.178;8.370;2024-02-16T01:01:45;97980.88;;;10.21;100.00
18858;BME280;9558;50.178;8.370;2024-02-16T01:04:31;97980.13;;;10.36;100.00
18858;BME280;9558;50.178;8.370;2024-02-16T01:07:20;97977.06;;;10.47;100.00
18858;BME280;9558;50.178;8.370;2024-02-16T01:10:07;97976.00;;;10.57;100.00
18858;BME280;9558;50.178;8.370;2024-02-16T01:12:54;97976.34;;;10.68;100.00
18858;BME280;9558;50.178;8.370;2024-02-16T01:15:41;97973.84;;;10.75;100.00
18858;BME280;9558;50.178;8.370;2024-02-16T01:18:29;97966.59;;;10.85;100.00
18858;BME280;9558;50.178;8.370;2024-02-16T01:21:17;97965.25;;;10.89;100.00
18858;BME280;9558;50.178;8.370;2024-02-16T01:24:05;97958.53;;;10.95;100.00
18858;BME280;9558;50.178;8.370;2024-02-16T01:26:52;97965.75;;;11.00;100.00
18858;BME280;9558;50.178;8.370;2024-02-16T01:29:39;97968.63;;;11.05;100.00
18858;BME280;9558;50.178;8.370;2024-02-16T01:32:27;97967.00;;;11.04;100.00
18858;BME280;9558;50.178;8.370;2024-02-16T01:35:14;97968.97;;;11.02;100.00
18858;BME280;9558;50.178;8.370;2024-02-16T01:38:01;97971.91;;;10.99;100.00
18858;BME280;9558;50.178;8.370;2024-02-16T01:40:50;97972.03;;;10.91;100.00
18858;BME280;9558;50.178;8.370;2024-02-16T01:43:37;97975.16;;;10.86;100.00
18858;BME280;9558;50.178;8.370;2024-02-16T01:46:23;97974.38;;;10.85;100.00
18858;BME280;9558;50.178;8.370;2024-02-16T01:49:11;97984.28;;;10.82;100.00
18858;BME280;9558;50.178;8.370;2024-02-16T01:52:00;97981.44;;;10.77;100.00
18858;BME280;9558;50.178;8.370;2024-02-16T01:54:47;97982.41;;;10.76;100.00
18858;BME280;9558;50.178;8.370;2024-02-16T01:57:35;97983.41;;;10.75;100.00
18858;BME280;9558;50.178;8.370;2024-02-16T02:00:22;97986.00;;;10.75;100.00
18858;BME280;9558;50.178;8.370;2024-02-16T02:03:09;97987.75;;;10.74;100.00
18858;BME280;9558;50.178;8.370;2024-02-16T02:05:56;97979.38;;;10.72;100.00
18858;BME280;9558;50.178;8.370;2024-02-16T02:08:43;97969.03;;;10.72;100.00
18858;BME280;9558;50.178;8.370;2024-02-16T02:11:30;97980.19;;;10.72;100.00
18858;BME280;9558;50.178;8.370;2024-02-16T02:14:21;97977.41;;;10.74;100.00
18858;BME280;9558;50.178;8.370;2024-02-16T02:17:11;97977.88;;;10.78;100.00
18858;BME280;9558;50.178;8.370;2024-02-16T02:19:58;97976.06;;;10.78;100.00
18858;BME280;9558;50.178;8.370;2024-02-16T02:22:46;97975.09;;;10.79;100.00
18858;BME280;9558;50.178;8.370;2024-02-16T02:25:33;97967.50;;;10.78;100.00
18858;BME280;9558;50.178;8.370;2024-02-16T02:28:21;97969.66;;;10.74;100.00
18858;BME280;9558;50.178;8.370;2024-02-16T02:31:09;97971.81;;;10.70;100.00
18858;BME280;9558;50.178;8.370;2024-02-16T02:33:56;97967.00;;;10.67;100.00
18858;BME280;9558;50.178;8.370;2024-02-16T02:36:43;97968.53;;;10.62;100.00
18858;BME280;9558;50.178;8.370;2024-02-16T02:39:31;97965.84;;;10.55;100.00
18858;BME280;9558;50.178;8.370;2024-02-16T02:42:18;97956.84;;;10.51;100.00
18858;BME280;9558;50.178;8.370;2024-02-16T02:45:06;97966.66;;;10.41;100.00
18858;BME280;9558;50.178;8.370;2024-02-16T02:47:53;97959.44;;;10.36;100.00
18858;BME280;9558;50.178;8.370;2024-02-16T02:50:40;97963.31;;;10.32;100.00
18858;BME280;9558;50.178;8.370;2024-02-16T02:53:28;97962.06;;;10.28;100.00
18858;BME280;9558;50.178;8.370;2024-02-16T02:56:16;97962.75;;;10.21;100.00
18858;BME280;9558;50.178;8.370;2024-02-16T02:59:03;97969.91;;;10.19;100.00
18858;BME280;9558;50.178;8.370;2024-02-16T03:01:51;97967.31;;;10.19;100.00
18858;BME280;9558;50.178;8.370;2024-02-16T03:04:38;97966.06;;;10.15;100.00
18858;BME280;9558;50.178;8.370;2024-02-16T03:07:25;97967.03;;;10.14;100.00
18858;BME280;9558;50.178;8.370;2024-02-16T03:10:12;97965.81;;;10.10;100.00
18858;BME280;9558;50.178;8.370;2024-02-16T03:13:02;97971.31;;;10.07;100.00
18858;BME280;9558;50.178;8.370;2024-02-16T03:15:49;97965.97;;;10.09;100.00
18858;BME280;9558;50.178;8.370;2024-02-16T03:18:37;97960.97;;;10.07;100.00
18858;BME280;9558;50.178;8.370;2024-02-16T03:21:24;97965.88;;;10.02;100.00
18858;BME280;9558;50.178;8.370;2024-02-16T03:24:10;97966.50;;;10.04;100.00
18858;BME280;9558;50.178;8.370;2024-02-16T03:26:57;97959.47;;;9.98;100.00
18858;BME280;9558;50.178;8.370;2024-02-16T03:29:45;97956.88;;;9.98;100.00
18858;BME280;9558;50.178;8.370;2024-02-16T03:32:32;97956.88;;;9.98;100.00
18858;BME280;9558;50.178;8.370;2024-02-16T03:35:19;97955.25;;;9.97;100.00
18858;BME280;9558;50.178;8.370;2024-02-16T03:38:06;97968.19;;;9.97;100.00
18858;BME280;9558;50.178;8.370;2024-02-16T03:40:53;97962.41;;;9.95;100.00
18858;BME280;9558;50.178;8.370;2024-02-16T03:43:41;97965.97;;;9.94;100.00
18858;BME280;9558;50.178;8.370;2024-02-16T03:46:30;97963.09;;;9.89;100.00
18858;BME280;9558;50.178;8.370;2024-02-16T03:49:17;97954.06;;;9.84;100.00
18858;BME280;9558;50.178;8.370;2024-02-16T03:52:04;97955.06;;;9.83;100.00
18858;BME280;9558;50.178;8.370;2024-02-16T03:54:51;97965.75;;;9.80;100.00
18858;BME280;9558;50.178;8.370;2024-02-16T03:57:39;97962.53;;;9.78;100.00
18858;BME280;9558;50.178;8.370;2024-02-16T04:00:27;97965.47;;;9.75;100.00
18858;BME280;9558;50.178;8.370;2024-02-16T04:03:15;97961.19;;;9.67;100.00
18858;BME280;9558;50.178;8.370;2024-02-16T04:06:02;97976.22;;;9.64;100.00
18858;BME280;9558;50.178;8.370;2024-02-16T04:08:50;97972.38;;;9.60;100.00
18858;BME280;9558;50.178;8.370;2024-02-16T04:11:36;97973.34;;;9.59;100.00
18858;BME280;9558;50.178;8.370;2024-02-16T04:14:23;97984.38;;;9.52;100.00
18858;BME280;9558;50.178;8.370;2024-02-16T04:17:10;97989.53;;;9.52;100.00
18858;BME280;9558;50.178;8.370;2024-02-16T04:19:58;97989.91;;;9.49;100.00
18858;BME280;9558;50.178;8.370;2024-02-16T04:22:45;97986.34;;;9.50;100.00
18858;BME280;9558;50.178;8.370;2024-02-16T04:25:32;97991.56;;;9.42;100.00
18858;BME280;9558;50.178;8.370;2024-02-16T04:28:19;97992.66;;;9.48;100.00
18858;BME280;9558;50.178;8.370;2024-02-16T04:31:06;97997.03;;;9.47;100.00
18858;BME280;9558;50.178;8.370;2024-02-16T04:33:53;97987.13;;;9.51;100.00
18858;BME280;9558;50.178;8.370;2024-02-16T04:36:41;97979.22;;;9.52;100.00
18858;BME280;9558;50.178;8.370;2024-02-16T04:39:29;97982.75;;;9.51;100.00
18858;BME280;9558;50.178;8.370;2024-02-16T04:42:16;97976.63;;;9.52;100.00
18858;BME280;9558;50.178;8.370;2024-02-16T04:45:03;97982.94;;;9.50;100.00
18858;BME280;9558;50.178;8.370;2024-02-16T04:47:50;97980.53;;;9.48;100.00
18858;BME280;9558;50.178;8.370;2024-02-16T04:50:37;97976.97;;;9.49;100.00
18858;BME280;9558;50.178;8.370;2024-02-16T04:53:25;97985.69;;;9.48;100.00
18858;BME280;9558;50.178;8.370;2024-02-16T04:56:12;97987.31;;;9.49;100.00
18858;BME280;9558;50.178;8.370;2024-02-16T04:58:59;97991.16;;;9.54;100.00
18858;BME280;9558;50.178;8.370;2024-02-16T05:01:46;97980.53;;;9.48;100.00
18858;BME280;9558;50.178;8.370;2024-02-16T05:04:33;97982.50;;;9.46;100.00
18858;BME280;9558;50.178;8.370;2024-02-16T05:07:20;97979.56;;;9.49;100.00
18858;BME280;9558;50.178;8.370;2024-02-16T05:10:09;97978.66;;;9.42;100.00
18858;BME280;9558;50.178;8.370;2024-02-16T05:12:56;97986.84;;;9.46;100.00
18858;BME280;9558;50.178;8.370;2024-02-16T05:15:43;97986.09;;;9.37;100.00
18858;BME280;9558;50.178;8.370;2024-02-16T05:18:30;97983.88;;;9.34;100.00
18858;BME280;9558;50.178;8.370;2024-02-16T05:21:17;97979.38;;;9.28;100.00
18858;BME280;9558;50.178;8.370;2024-02-16T05:24:05;97979.38;;;9.28;100.00
18858;BME280;9558;50.178;8.370;2024-02-16T05:26:53;97975.53;;;9.24;100.00
18858;BME280;9558;50.178;8.370;2024-02-16T05:29:41;97965.81;;;9.26;100.00
18858;BME280;9558;50.178;8.370;2024-02-16T05:32:28;97970.06;;;9.19;100.00
18858;BME280;9558;50.178;8.370;2024-02-16T05:35:14;97977.53;;;9.13;100.00
18858;BME280;9558;50.178;8.370;2024-02-16T05:38:02;97987.69;;;9.15;100.00
18858;BME280;9558;50.178;8.370;2024-02-16T05:40:52;97986.44;;;9.11;100.00
18858;BME280;9558;50.178;8.370;2024-02-16T05:43:44;97980.34;;;9.04;100.00
18858;BME280;9558;50.178;8.370;2024-02-16T05:46:30;97977.94;;;9.02;100.00
18858;BME280;9558;50.178;8.370;2024-02-16T05:49:17;97982.34;;;8.93;100.00
18858;BME280;9558;50.178;8.370;2024-02-16T05:52:05;97982.53;;;8.84;100.00
18858;BME280;9558;50.178;8.370;2024-02-16T05:55:05;97979.31;;;8.81;100.00
18858;BME280;9558;50.178;8.370;2024-02-16T05:57:52;97972.25;;;8.75;100.00
18858;BME280;9558;50.178;8.370;2024-02-16T06:00:40;97984.81;;;8.70;100.00
18858;BME280;9558;50.178;8.370;2024-02-16T06:03:28;97981.63;;;8.68;100.00
18858;BME280;9558;50.178;8.370;2024-02-16T06:06:14;97974.50;;;8.70;100.00
18858;BME280;9558;50.178;8.370;2024-02-16T06:09:01;97983.09;;;8.62;100.00
18858;BME280;9558;50.178;8.370;2024-02-16T06:11:48;97991.34;;;8.58;100.00
18858;BME280;9558;50.178;8.370;2024-02-16T06:14:35;97991.81;;;8.61;100.00
18858;BME280;9558;50.178;8.370;2024-02-16T06:17:24;97982.16;;;8.55;100.00
18858;BME280;9558;50.178;8.370;2024-02-16T06:20:11;97991.19;;;8.51;100.00
18858;BME280;9558;50.178;8.370;2024-02-16T06:22:59;97986.38;;;8.48;100.00
18858;BME280;9558;50.178;8.370;2024-02-16T06:25:45;97984.28;;;8.43;100.00
18858;BME280;9558;50.178;8.370;2024-02-16T06:28:32;97980.25;;;8.41;100.00
18858;BME280;9558;50.178;8.370;2024-02-16T06:31:19;97985.22;;;8.42;100.00
18858;BME280;9558;50.178;8.370;2024-02-16T06:34:07;97990.06;;;8.37;100.00
18858;BME280;9558;50.178;8.370;2024-02-16T06:36:54;98000.72;;;8.34;100.00
18858;BME280;9558;50.178;8.370;2024-02-16T06:39:42;98001.22;;;8.38;100.00
18858;BME280;9558;50.178;8.370;2024-02-16T06:42:29;97993.63;;;8.36;100.00
18858;BME280;9558;50.178;8.370;2024-02-16T06:45:16;98006.88;;;8.33;100.00
18858;BME280;9558;50.178;8.370;2024-02-16T06:48:02;98004.75;;;8.37;100.00
18858;BME280;9558;50.178;8.370;2024-02-16T06:50:51;97999.75;;;8.43;100.00
18858;BME280;9558;50.178;8.370;2024-02-16T06:53:39;98011.97;;;8.41;100.00
18858;BME280;9558;50.178;8.370;2024-02-16T06:56:26;98020.06;;;8.46;100.00
18858;BME280;9558;50.178;8.370;2024-02-16T06:59:13;98018.09;;;8.57;100.00
18858;BME280;9558;50.178;8.370;2024-02-16T07:02:00;98008.44;;;8.59;100.00
18858;BME280;9558;50.178;8.370;2024-02-16T07:04:46;98026.50;;;8.59;100.00
18858;BME280;9558;50.178;8.370;2024-02-16T07:07:35;98029.38;;;8.64;100.00
18858;BME280;9558;50.178;8.370;2024-02-16T07:10:21;98025.16;;;8.63;100.00
18858;BME280;9558;50.178;8.370;2024-02-16T07:13:08;98022.56;;;8.71;100.00
18858;BME280;9558;50.178;8.370;2024-02-16T07:15:55;98028.66;;;8.78;100.00
18858;BME280;9558;50.178;8.370;2024-02-16T07:18:43;98029.75;;;8.92;100.00
18858;BME280;9558;50.178;8.370;2024-02-16T07:21:29;98045.84;;;9.03;100.00
18858;BME280;9558;50.178;8.370;2024-02-16T07:24:18;98064.03;;;9.09;100.00
18858;BME280;9558;50.178;8.370;2024-02-16T07:27:04;98067.72;;;9.15;100.00
18858;BME280;9558;50.178;8.370;2024-02-16T07:29:51;98078.66;;;9.25;100.00
18858;BME280;9558;50.178;8.370;2024-02-16T07:32:38;98083.31;;;9.30;100.00
18858;BME280;9558;50.178;8.370;2024-02-16T07:35:25;98086.34;;;9.42;100.00
18858;BME280;9558;50.178;8.370;2024-02-16T07:38:12;98084.59;;;9.57;100.00
18858;BME280;9558;50.178;8.370;2024-02-16T07:41:00;98076.47;;;9.68;100.00
18858;BME280;9558;50.178;8.370;2024-02-16T07:43:47;98075.91;;;9.81;100.00
18858;BME280;9558;50.178;8.370;2024-02-16T07:46:39;98070.97;;;9.95;100.00
18858;BME280;9558;50.178;8.370;2024-02-16T07:49:26;98066.72;;;10.02;100.00
18858;BME280;9558;50.178;8.370;2024-02-16T07:52:13;98066.97;;;10.07;100.00
18858;BME280;9558;50.178;8.370;2024-02-16T07:55:00;98067.63;;;10.09;100.00
18858;BME280;9558;50.178;8.370;2024-02-16T07:57:48;98076.91;;;10.18;100.00
18858;BME280;9558;50.178;8.370;2024-02-16T08:00:35;98078.16;;;10.23;100.00
18858;BME280;9558;50.178;8.370;2024-02-16T08:03:22;98093.25;;;10.19;100.00
18858;BME280;9558;50.178;8.370;2024-02-16T08:06:09;98102.09;;;10.25;100.00
18858;BME280;9558;50.178;8.370;2024-02-16T08:08:56;98094.19;;;10.41;100.00
18858;BME280;9558;50.178;8.370;2024-02-16T08:11:43;98081.81;;;10.51;100.00
18858;BME280;9558;50.178;8.370;2024-02-16T08:14:31;98087.38;;;10.63;100.00
18858;BME280;9558;50.178;8.370;2024-02-16T08:17:18;98095.22;;;10.70;100.00
18858;BME280;9558;50.178;8.370;2024-02-16T08:20:07;98100.50;;;10.77;100.00
18858;BME280;9558;50.178;8.370;2024-02-16T08:22:55;98098.63;;;10.85;100.00
18858;BME280;9558;50.178;8.370;2024-02-16T08:25:42;98095.31;;;10.92;100.00
18858;BME280;9558;50.178;8.370;2024-02-16T08:28:29;98092.81;;;10.98;100.00
18858;BME280;9558;50.178;8.370;2024-02-16T08:31:17;98092.91;;;11.05;100.00
18858;BME280;9558;50.178;8.370;2024-02-16T08:34:04;98096.94;;;11.07;100.00
18858;BME280;9558;50.178;8.370;2024-02-16T08:36:52;98101.38;;;11.14;100.00
18858;BME280;9558;50.178;8.370;2024-02-16T08:39:40;98100.47;;;11.21;100.00
18858;BME280;9558;50.178;8.370;2024-02-16T08:42:27;98100.00;;;11.33;100.00
18858;BME280;9558;50.178;8.370;2024-02-16T08:45:14;98105.09;;;11.41;100.00
18858;BME280;9558;50.178;8.370;2024-02-16T08:48:04;98099.00;;;11.49;100.00
18858;BME280;9558;50.178;8.370;2024-02-16T08:50:51;98108.84;;;11.53;100.00
18858;BME280;9558;50.178;8.370;2024-02-16T08:53:39;98111.28;;;11.62;100.00
18858;BME280;9558;50.178;8.370;2024-02-16T08:56:26;98116.75;;;11.67;100.00
18858;BME280;9558;50.178;8.370;2024-02-16T08:59:13;98113.16;;;11.68;100.00
18858;BME280;9558;50.178;8.370;2024-02-16T09:02:00;98123.16;;;11.71;100.00
18858;BME280;9558;50.178;8.370;2024-02-16T09:04:48;98117.78;;;11.72;100.00
18858;BME280;9558;50.178;8.370;2024-02-16T09:07:35;98122.78;;;11.74;100.00
18858;BME280;9558;50.178;8.370;2024-02-16T09:10:22;98126.03;;;11.76;100.00
18858;BME280;9558;50.178;8.370;2024-02-16T09:13:09;98128.63;;;11.76;100.00
18858;BME280;9558;50.178;8.370;2024-02-16T09:15:56;98119.84;;;11.77;100.00
18858;BME280;9558;50.178;8.370;2024-02-16T09:18:43;98127.00;;;11.75;100.00
18858;BME280;9558;50.178;8.370;2024-02-16T09:21:31;98124.41;;;11.75;100.00
18858;BME280;9558;50.178;8.370;2024-02-16T09:24:18;98131.22;;;11.76;100.00
18858;BME280;9558;50.178;8.370;2024-02-16T09:27:05;98137.56;;;11.73;100.00
18858;BME280;9558;50.178;8.370;2024-02-16T09:29:52;98127.59;;;11.77;100.00
18858;BME280;9558;50.178;8.370;2024-02-16T09:32:39;98134.78;;;11.75;100.00
18858;BME280;9558;50.178;8.370;2024-02-16T09:35:26;98131.81;;;11.78;100.00
18858;BME280;9558;50.178;8.370;2024-02-16T09:38:14;98142.78;;;11.80;100.00
18858;BME280;9558;50.178;8.370;2024-02-16T09:41:01;98142.44;;;11.83;100.00
18858;BME280;9558;50.178;8.370;2024-02-16T09:43:49;98145.03;;;11.83;100.00
18858;BME280;9558;50.178;8.370;2024-02-16T09:46:39;98146.81;;;11.83;100.00
18858;BME280;9558;50.178;8.370;2024-02-16T09:49:26;98149.22;;;11.84;100.00
18858;BME280;9558;50.178;8.370;2024-02-16T09:52:13;98154.03;;;11.87;100.00
18858;BME280;9558;50.178;8.370;2024-02-16T09:55:01;98150.91;;;11.92;100.00
18858;BME280;9558;50.178;8.370;2024-02-16T09:57:58;98151.38;;;11.96;100.00
18858;BME280;9558;50.178;8.370;2024-02-16T10:00:49;98154.59;;;11.98;100.00
18858;BME280;9558;50.178;8.370;2024-02-16T10:03:36;98150.66;;;12.02;100.00
18858;BME280;9558;50.178;8.370;2024-02-16T10:06:23;98162.88;;;12.08;100.00
18858;BME280;9558;50.178;8.370;2024-02-16T10:09:10;98161.69;;;12.10;100.00
18858;BME280;9558;50.178;8.370;2024-02-16T10:11:58;98169.72;;;12.16;100.00
18858;BME280;9558;50.178;8.370;2024-02-16T10:14:53;98176.34;;;12.18;100.00
18858;BME280;9558;50.178;8.370;2024-02-16T10:17:42;98187.50;;;12.19;100.00
18858;BME280;9558;50.178;8.370;2024-02-16T10:20:29;98181.78;;;12.23;100.00
18858;BME280;9558;50.178;8.370;2024-02-16T10:23:16;98186.81;;;12.32;100.00
18858;BME280;9558;50.178;8.370;2024-02-16T10:26:03;98191.72;;;12.41;100.00
18858;BME280;9558;50.178;8.370;2024-02-16T10:28:54;98187.03;;;12.52;100.00
18858;BME280;9558;50.178;8.370;2024-02-16T10:31:42;98190.03;;;12.55;100.00
18858;BME280;9558;50.178;8.370;2024-02-16T10:34:29;98192.06;;;12.60;100.00
18858;BME280;9558;50.178;8.370;2024-02-16T10:37:16;98193.88;;;12.59;100.00
18858;BME280;9558;50.178;8.370;2024-02-16T10:40:04;98193.75;;;12.68;100.00
18858;BME280;9558;50.178;8.370;2024-02-16T10:42:51;98196.94;;;12.70;100.00
18858;BME280;9558;50.178;8.370;2024-02-16T10:45:40;98198.78;;;12.76;100.00
18858;BME280;9558;50.178;8.370;2024-02-16T10:48:27;98199.59;;;12.76;100.00
18858;BME280;9558;50.178;8.370;2024-02-16T10:51:15;98201.81;;;12.79;100.00
18858;BME280;9558;50.178;8.370;2024-02-16T10:54:04;98200.84;;;12.81;100.00
18858;BME280;9558;50.178;8.370;2024-02-16T10:56:53;98202.84;;;12.85;100.00
18858;BME280;9558;50.178;8.370;2024-02-16T10:59:44;98195.66;;;12.87;100.00
18858;BME280;9558;50.178;8.370;2024-02-16T11:02:32;98195.66;;;12.87;100.00
18858;BME280;9558;50.178;8.370;2024-02-16T11:05:19;98198.88;;;12.89;100.00
18858;BME280;9558;50.178;8.370;2024-02-16T11:08:14;98195.31;;;12.90;100.00
18858;BME280;9558;50.178;8.370;2024-02-16T11:11:02;98197.47;;;12.87;100.00
18858;BME280;9558;50.178;8.370;2024-02-16T11:13:53;98201.28;;;12.91;100.00
18858;BME280;9558;50.178;8.370;2024-02-16T11:16:44;98204.69;;;12.91;100.00
18858;BME280;9558;50.178;8.370;2024-02-16T11:19:33;98199.09;;;12.94;100.00
18858;BME280;9558;50.178;8.370;2024-02-16T11:22:20;98198.56;;;12.99;100.00
18858;BME280;9558;50.178;8.370;2024-02-16T11:25:08;98199.41;;;13.06;100.00
18858;BME280;9558;50.178;8.370;2024-02-16T11:27:55;98197.84;;;13.12;100.00
18858;BME280;9558;50.178;8.370;2024-02-16T11:30:42;98198.06;;;13.17;100.00
18858;BME280;9558;50.178;8.370;2024-02-16T11:33:29;98200.47;;;13.19;100.00
18858;BME280;9558;50.178;8.370;2024-02-16T11:36:18;98203.09;;;13.25;100.00
18858;BME280;9558;50.178;8.370;2024-02-16T11:39:12;98205.56;;;13.34;100.00
18858;BME280;9558;50.178;8.370;2024-02-16T11:42:02;98205.25;;;13.43;100.00
18858;BME280;9558;50.178;8.370;2024-02-16T11:44:51;98204.03;;;13.46;100.00
18858;BME280;9558;50.178;8.370;2024-02-16T11:47:38;98199.69;;;13.53;97.16
18858;BME280;9558;50.178;8.370;2024-02-16T11:50:26;98202.13;;;13.61;100.00
18858;BME280;9558;50.178;8.370;2024-02-16T11:53:16;98201.34;;;13.68;98.48
18858;BME280;9558;50.178;8.370;2024-02-16T11:56:04;98202.53;;;13.72;97.95
18858;BME280;9558;50.178;8.370;2024-02-16T11:58:51;98196.16;;;13.74;97.54
18858;BME280;9558;50.178;8.370;2024-02-16T12:01:48;98197.97;;;13.74;96.80
18858;BME280;9558;50.178;8.370;2024-02-16T12:04:35;98198.97;;;13.73;97.37
18858;BME280;9558;50.178;8.370;2024-02-16T12:07:21;98205.78;;;13.74;96.92
18858;BME280;9558;50.178;8.370;2024-02-16T12:10:10;98208.97;;;13.76;96.69
18858;BME280;9558;50.178;8.370;2024-02-16T12:12:58;98205.38;;;13.77;95.92
18858;BME280;9558;50.178;8.370;2024-02-16T12:15:45;98210.19;;;13.80;95.34
18858;BME280;9558;50.178;8.370;2024-02-16T12:18:32;98202.53;;;13.72;94.98
18858;BME280;9558;50.178;8.370;2024-02-16T12:21:19;98200.97;;;13.71;95.81
18858;BME280;9558;50.178;8.370;2024-02-16T12:24:06;98208.19;;;13.75;96.38
18858;BME280;9558;50.178;8.370;2024-02-16T12:26:54;98209.59;;;13.85;96.49
18858;BME280;9558;50.178;8.370;2024-02-16T12:29:41;98205.41;;;13.90;94.93
18858;BME280;9558;50.178;8.370;2024-02-16T12:32:28;98203.81;;;13.89;95.57
18858;BME280;9558;50.178;8.370;2024-02-16T12:35:15;98208.25;;;13.95;96.78
18858;BME280;9558;50.178;8.370;2024-02-16T12:38:02;98210.44;;;13.98;96.97
18858;BME280;9558;50.178;8.370;2024-02-16T12:40:49;98207.09;;;14.05;95.10
18858;BME280;9558;50.178;8.370;2024-02-16T12:43:37;98211.88;;;14.14;97.30
18858;BME280;9558;50.178;8.370;2024-02-16T12:46:24;98208.69;;;14.26;97.25
18858;BME280;9558;50.178;8.370;2024-02-16T12:49:13;98195.31;;;14.35;96.03
18858;BME280;9558;50.178;8.370;2024-02-16T12:52:01;98199.53;;;14.37;95.54
18858;BME280;9558;50.178;8.370;2024-02-16T12:54:48;98204.72;;;14.30;95.33
18858;BME280;9558;50.178;8.370;2024-02-16T12:57:35;98206.91;;;14.33;96.90
18858;BME280;9558;50.178;8.370;2024-02-16T13:00:23;98199.53;;;14.37;96.21
18858;BME280;9558;50.178;8.370;2024-02-16T13:03:10;98202.94;;;14.30;96.68
18858;BME280;9558;50.178;8.370;2024-02-16T13:05:57;98199.09;;;14.33;96.60
18858;BME280;9558;50.178;8.370;2024-02-16T13:08:44;98202.53;;;14.33;96.45
18858;BME280;9558;50.178;8.370;2024-02-16T13:11:31;98199.53;;;14.37;96.93
18858;BME280;9558;50.178;8.370;2024-02-16T13:14:19;98195.94;;;14.38;96.56
18858;BME280;9558;50.178;8.370;2024-02-16T13:17:07;98205.13;;;14.33;96.68
18858;BME280;9558;50.178;8.370;2024-02-16T13:19:54;98201.13;;;14.38;96.97
18858;BME280;9558;50.178;8.370;2024-02-16T13:22:43;98205.91;;;14.34;96.46
18858;BME280;9558;50.178;8.370;2024-02-16T13:25:30;98205.13;;;14.33;97.65
18858;BME280;9558;50.178;8.370;2024-02-16T13:28:17;98205.94;;;14.41;96.82
18858;BME280;9558;50.178;8.370;2024-02-16T13:31:04;98213.31;;;14.37;97.40
18858;BME280;9558;50.178;8.370;2024-02-16T13:33:53;98205.13;;;14.40;97.75
18858;BME280;9558;50.178;8.370;2024-02-16T13:36:40;98215.34;;;14.42;96.81
18858;BME280;9558;50.178;8.370;2024-02-16T13:39:27;98207.72;;;14.40;97.14
18858;BME280;9558;50.178;8.370;2024-02-16T13:42:14;98215.94;;;14.30;96.80
18858;BME280;9558;50.178;8.370;2024-02-16T13:45:01;98211.31;;;14.32;97.76
18858;BME280;9558;50.178;8.370;2024-02-16T13:47:48;98215.94;;;14.30;97.58
18858;BME280;9558;50.178;8.370;2024-02-16T13:50:36;98217.94;;;14.28;98.13
18858;BME280;9558;50.178;8.370;2024-02-16T13:53:23;98219.94;;;14.26;98.49
18858;BME280;9558;50.178;8.370;2024-02-16T13:56:10;98214.72;;;14.26;99.04
18858;BME280;9558;50.178;8.370;2024-02-16T13:58:57;98224.13;;;14.27;99.36
18858;BME280;9558;50.178;8.370;2024-02-16T14:01:44;98225.94;;;14.33;99.17
18858;BME280;9558;50.178;8.370;2024-02-16T14:04:33;98231.16;;;14.33;99.09
18858;BME280;9558;50.178;8.370;2024-02-16T14:07:21;98233.97;;;14.32;99.48
18858;BME280;9558;50.178;8.370;2024-02-16T14:10:08;98237.13;;;14.27;100.00
18858;BME280;9558;50.178;8.370;2024-02-16T14:12:55;98245.97;;;14.26;99.14
18858;BME280;9558;50.178;8.370;2024-02-16T14:15:42;98251.19;;;14.26;100.00
18858;BME280;9558;50.178;8.370;2024-02-16T14:18:29;98251.97;;;14.27;100.00
18858;BME280;9558;50.178;8.370;2024-02-16T14:21:16;98253.97;;;14.31;100.00
18858;BME280;9558;50.178;8.370;2024-02-16T14:24:05;98252.00;;;14.33;100.00
18858;BME280;9558;50.178;8.370;2024-02-16T14:26:52;98257.19;;;14.40;100.00
18858;BME280;9558;50.178;8.370;2024-02-16T14:29:39;98254.59;;;14.47;100.00
18858;BME280;9558;50.178;8.370;2024-02-16T14:32:26;98259.22;;;14.45;100.00
18858;BME280;9558;50.178;8.370;2024-02-16T14:35:13;98260.00;;;14.45;100.00
18858;BME280;9558;50.178;8.370;2024-02-16T14:38:00;98256.03;;;14.49;100.00
18858;BME280;9558;50.178;8.370;2024-02-16T14:40:49;98257.22;;;14.47;100.00
18858;BME280;9558;50.178;8.370;2024-02-16T14:43:35;98267.22;;;14.50;100.00
18858;BME280;9558;50.178;8.370;2024-02-16T14:46:25;98260.59;;;14.47;100.00
18858;BME280;9558;50.178;8.370;2024-02-16T14:49:12;98266.84;;;14.46;100.00
18858;BME280;9558;50.178;8.370;2024-02-16T14:52:05;98268.81;;;14.44;100.00